createdAt,value
2023-04-24T00:02:08.115Z,23.83
2023-04-24T00:04:41.423Z,23.79
2023-04-24T00:07:12.116Z,23.69
2023-04-24T00:09:41.739Z,23.69
2023-04-24T00:12:11.588Z,23.68
2023-04-24T00:14:41.447Z,23.85
2023-04-24T00:17:10.536Z,23.94
2023-04-24T00:19:39.922Z,23.69
2023-04-24T00:22:09.034Z,23.66
2023-04-24T00:24:39.856Z,23.70
2023-04-24T00:27:09.100Z,23.52
2023-04-24T00:29:38.723Z,23.64
2023-04-24T00:32:07.964Z,23.59
2023-04-24T00:34:37.651Z,23.66
2023-04-24T00:37:07.130Z,23.54
2023-04-24T00:39:38.073Z,23.62
2023-04-24T00:42:07.708Z,23.26
2023-04-24T00:44:37.578Z,23.38
2023-04-24T00:47:07.309Z,23.53
2023-04-24T00:49:37.229Z,23.22
2023-04-24T00:52:08.627Z,23.11
2023-04-24T00:54:39.650Z,22.82
2023-04-24T00:57:09.175Z,22.74
2023-04-24T00:59:38.928Z,22.84
2023-04-24T01:02:08.600Z,23.30
2023-04-24T01:04:38.433Z,22.64
2023-04-24T01:07:11.637Z,22.81
2023-04-24T01:09:43.778Z,21.92
2023-04-24T01:12:13.423Z,21.68
2023-04-24T01:14:42.852Z,21.74
2023-04-24T01:17:12.005Z,21.59
2023-04-24T01:19:42.235Z,21.81
2023-04-24T01:22:14.964Z,22.03
2023-04-24T01:24:45.268Z,21.70
2023-04-24T01:27:15.801Z,21.70
2023-04-24T01:29:50.345Z,21.50
2023-04-24T01:32:19.972Z,21.45
2023-04-24T01:34:50.555Z,21.50
2023-04-24T01:37:21.303Z,21.81
2023-04-24T01:39:50.928Z,21.38
2023-04-24T01:42:21.527Z,22.01
2023-04-24T01:44:51.314Z,22.06
2023-04-24T01:47:20.630Z,22.01
2023-04-24T01:49:51.897Z,22.34
2023-04-24T01:52:22.613Z,22.21
2023-04-24T01:54:52.097Z,22.22
2023-04-24T01:57:21.306Z,22.36
2023-04-24T01:59:50.894Z,22.16
2023-04-24T02:02:22.337Z,22.14
2023-04-24T02:04:52.075Z,22.11
2023-04-24T02:07:22.543Z,22.24
2023-04-24T02:09:52.162Z,22.39
2023-04-24T02:12:21.397Z,22.27
2023-04-24T02:14:51.309Z,22.24
2023-04-24T02:17:21.027Z,22.29
2023-04-24T02:19:50.531Z,22.45
2023-04-24T02:22:21.365Z,22.25
2023-04-24T02:24:50.797Z,22.00
2023-04-24T02:27:19.969Z,22.17
2023-04-24T02:29:49.795Z,22.14
2023-04-24T02:36:08.215Z,22.07
2023-04-24T02:38:38.928Z,22.37
2023-04-24T02:41:08.727Z,22.49
2023-04-24T02:43:37.765Z,22.69
2023-04-24T02:46:07.465Z,22.50
2023-04-24T02:48:36.718Z,22.42
2023-04-24T02:51:07.459Z,22.52
2023-04-24T02:53:38.288Z,22.26
2023-04-24T02:56:07.861Z,21.97
2023-04-24T02:58:37.822Z,21.70
2023-04-24T03:01:07.550Z,22.16
2023-04-24T03:03:36.870Z,21.89
2023-04-24T03:06:07.206Z,22.03
2023-04-24T03:08:37.861Z,22.14
2023-04-24T03:11:07.568Z,22.12
2023-04-24T03:13:37.755Z,22.08
2023-04-24T03:16:07.769Z,22.17
2023-04-24T03:18:37.171Z,22.27
2023-04-24T03:21:08.292Z,22.27
2023-04-24T03:23:40.595Z,22.01
2023-04-24T03:26:10.770Z,22.22
2023-04-24T03:28:45.685Z,22.19
2023-04-24T03:31:16.466Z,22.17
2023-04-24T03:33:45.711Z,21.90
2023-04-24T03:36:15.098Z,21.84
2023-04-24T03:38:46.214Z,21.99
2023-04-24T03:41:28.372Z,21.65
2023-04-24T03:44:12.694Z,21.35
2023-04-24T03:46:43.282Z,21.49
2023-04-24T03:49:12.752Z,21.32
2023-04-24T03:51:45.743Z,21.23
2023-04-24T03:54:28.149Z,21.61
2023-04-24T03:56:57.832Z,21.23
2023-04-24T03:59:29.321Z,21.17
2023-04-24T04:02:11.795Z,21.40
2023-04-24T04:04:41.903Z,21.49
2023-04-24T04:07:12.341Z,21.60
2023-04-24T04:09:43.475Z,21.18
2023-04-24T04:12:13.752Z,21.37
2023-04-24T04:14:43.008Z,21.68
2023-04-24T04:17:12.407Z,21.64
2023-04-24T04:19:41.994Z,21.43
2023-04-24T04:22:11.908Z,21.29
2023-04-24T04:24:47.412Z,21.40
2023-04-24T04:27:17.792Z,21.53
2023-04-24T04:30:08.238Z,21.68
2023-04-24T04:32:45.876Z,21.51
2023-04-24T04:35:15.175Z,21.63
2023-04-24T04:37:44.703Z,21.66
2023-04-24T04:40:31.712Z,21.78
2023-04-24T04:43:05.934Z,21.92
2023-04-24T04:45:42.558Z,22.28
2023-04-24T04:48:41.836Z,22.38
2023-04-24T04:51:10.938Z,22.79
2023-04-24T04:53:41.175Z,22.64
2023-04-24T04:56:11.827Z,22.70
2023-04-24T04:58:47.902Z,22.70
2023-04-24T05:01:19.591Z,23.07
2023-04-24T05:03:51.169Z,23.20
2023-04-24T05:06:21.044Z,23.18
2023-04-24T05:08:52.264Z,23.39
2023-04-24T05:11:34.261Z,23.71
2023-04-24T05:14:05.136Z,23.81
2023-04-24T05:16:42.718Z,23.11
2023-04-24T05:19:15.061Z,22.97
2023-04-24T05:21:44.685Z,22.80
2023-04-24T05:24:14.508Z,23.11
2023-04-24T05:26:58.121Z,23.24
2023-04-24T05:29:34.132Z,23.43
2023-04-24T05:32:03.468Z,22.95
2023-04-24T05:34:34.129Z,22.85
2023-04-24T05:37:03.974Z,23.18
2023-04-24T05:39:33.417Z,22.91
2023-04-24T05:42:05.573Z,22.76
2023-04-24T05:44:35.048Z,22.69
2023-04-24T05:47:04.268Z,22.68
2023-04-24T05:49:33.779Z,22.81
2023-04-24T05:52:05.101Z,22.61
2023-04-24T05:54:34.762Z,22.52
2023-04-24T05:57:08.613Z,22.11
2023-04-24T06:00:00.500Z,22.01
2023-04-24T06:02:33.703Z,22.41
2023-04-24T06:05:03.856Z,22.70
2023-04-24T06:07:33.457Z,22.65
2023-04-24T06:10:06.445Z,22.78
2023-04-24T06:12:43.594Z,22.79
2023-04-24T06:15:20.371Z,22.95
2023-04-24T06:17:56.054Z,23.29
2023-04-24T06:20:26.128Z,22.91
2023-04-24T06:22:55.275Z,22.51
2023-04-24T06:25:26.803Z,22.37
2023-04-24T06:27:57.629Z,22.52
2023-04-24T06:30:28.250Z,22.19
2023-04-24T06:33:03.041Z,22.46
2023-04-24T06:35:40.070Z,22.50
2023-04-24T06:38:09.475Z,22.12
2023-04-24T06:40:39.711Z,22.27
2023-04-24T06:43:10.725Z,22.32
2023-04-24T06:45:40.973Z,22.24
2023-04-24T06:48:10.549Z,22.27
2023-04-24T06:50:40.153Z,22.27
2023-04-24T06:53:09.413Z,22.58
2023-04-24T06:55:39.165Z,22.69
2023-04-24T06:58:10.299Z,22.43
2023-04-24T07:00:39.918Z,22.46
2023-04-24T07:03:09.381Z,22.15
2023-04-24T07:05:39.383Z,22.43
2023-04-24T07:08:09.714Z,22.68
2023-04-24T07:10:39.216Z,21.94
2023-04-24T07:13:09.971Z,22.22
2023-04-24T07:15:39.943Z,21.98
2023-04-24T07:18:09.623Z,22.14
2023-04-24T07:20:39.180Z,22.40
2023-04-24T07:23:08.354Z,22.16
2023-04-24T07:25:37.804Z,22.42
2023-04-24T07:28:07.082Z,22.42
2023-04-24T07:30:38.169Z,22.78
2023-04-24T07:33:07.971Z,22.79
2023-04-24T07:35:37.393Z,22.99
2023-04-24T07:38:06.901Z,23.05
2023-04-24T07:40:36.472Z,23.24
2023-04-24T07:43:05.872Z,23.12
2023-04-24T07:45:38.289Z,22.47
2023-04-24T07:48:10.060Z,22.44
2023-04-24T07:50:39.663Z,22.87
2023-04-24T07:53:08.968Z,22.86
2023-04-24T07:55:38.497Z,23.27
2023-04-24T07:58:07.778Z,23.47
2023-04-24T08:00:37.492Z,23.16
2023-04-24T08:03:08.433Z,22.52
2023-04-24T08:05:40.233Z,23.07
2023-04-24T08:08:10.628Z,23.49
2023-04-24T08:10:40.058Z,23.61
2023-04-24T08:13:09.360Z,23.80
2023-04-24T08:15:39.205Z,23.62
2023-04-24T08:18:10.155Z,23.40
2023-04-24T08:20:39.945Z,23.44
2023-04-24T08:23:09.246Z,24.35
2023-04-24T08:25:38.614Z,24.68
2023-04-24T08:28:10.860Z,25.62
2023-04-24T08:30:40.632Z,26.08
2023-04-24T08:33:11.253Z,25.93
2023-04-24T08:35:41.158Z,26.25
2023-04-24T08:38:10.293Z,26.34
2023-04-24T08:40:40.593Z,25.68
2023-04-24T08:43:10.090Z,25.32
2023-04-24T08:45:39.975Z,25.53
2023-04-24T08:48:23.505Z,24.71
2023-04-24T08:51:00.924Z,25.44
2023-04-24T08:53:30.260Z,24.70
2023-04-24T08:55:59.941Z,23.95
2023-04-24T08:58:29.411Z,23.53
2023-04-24T09:00:59.542Z,23.13
2023-04-24T09:03:31.057Z,24.42
2023-04-24T09:06:01.219Z,25.05
2023-04-24T09:08:31.872Z,24.95
2023-04-24T09:11:03.786Z,25.47
2023-04-24T09:13:34.292Z,25.62
2023-04-24T09:16:03.772Z,25.68
2023-04-24T09:18:36.365Z,25.86
2023-04-24T09:21:09.394Z,25.92
2023-04-24T09:23:39.052Z,25.43
2023-04-24T09:26:09.267Z,25.88
2023-04-24T09:28:39.791Z,26.11
2023-04-24T09:31:11.055Z,26.47
2023-04-24T09:33:41.832Z,26.23
2023-04-24T09:36:11.817Z,26.15
2023-04-24T09:38:41.393Z,26.96
2023-04-24T09:41:16.173Z,26.32
2023-04-24T09:43:45.427Z,26.37
2023-04-24T09:46:14.906Z,26.41
2023-04-24T09:48:45.508Z,26.46
2023-04-24T09:51:16.349Z,26.77
2023-04-24T09:53:49.170Z,26.63
2023-04-24T09:56:28.073Z,26.55
2023-04-24T09:58:57.382Z,26.44
2023-04-24T10:01:33.311Z,26.94
2023-04-24T10:04:04.092Z,27.10
2023-04-24T10:06:35.930Z,27.11
2023-04-24T10:09:06.169Z,27.56
2023-04-24T10:11:35.877Z,29.04
2023-04-24T10:14:05.910Z,29.52
2023-04-24T10:16:36.344Z,30.43
2023-04-24T10:19:07.184Z,29.69
2023-04-24T10:21:38.826Z,29.32
2023-04-24T10:24:09.333Z,29.06
2023-04-24T10:26:38.886Z,28.60
2023-04-24T10:29:10.862Z,29.49
2023-04-24T10:31:40.922Z,30.39
2023-04-24T10:34:12.581Z,28.37
2023-04-24T10:36:45.391Z,28.71
2023-04-24T10:39:16.709Z,29.68
2023-04-24T10:41:47.493Z,30.89
2023-04-24T10:44:18.185Z,31.71
2023-04-24T10:46:49.780Z,30.44
2023-04-24T10:49:29.740Z,30.38
2023-04-24T10:52:06.561Z,29.53
2023-04-24T10:54:38.918Z,29.43
2023-04-24T10:57:32.023Z,30.01
2023-04-24T11:00:16.968Z,30.11
2023-04-24T11:02:54.228Z,29.98
2023-04-24T11:05:45.278Z,30.40
2023-04-24T11:08:16.967Z,30.74
2023-04-24T11:10:56.316Z,31.10
2023-04-24T11:13:26.860Z,30.38
2023-04-24T11:16:15.191Z,30.97
2023-04-24T11:18:51.982Z,30.18
2023-04-24T11:21:24.620Z,30.45
2023-04-24T11:23:54.302Z,30.24
2023-04-24T11:26:25.856Z,31.19
2023-04-24T11:28:55.330Z,29.97
2023-04-24T11:31:42.113Z,29.95
2023-04-24T11:34:13.964Z,28.82
2023-04-24T11:36:46.318Z,27.81
2023-04-24T11:39:16.300Z,28.52
2023-04-24T11:41:45.552Z,29.65
2023-04-24T11:44:16.069Z,30.13
2023-04-24T11:46:45.770Z,29.68
2023-04-24T11:49:15.516Z,27.93
2023-04-24T11:51:52.945Z,28.97
2023-04-24T11:54:23.796Z,29.08
2023-04-24T11:56:53.149Z,28.49
2023-04-24T11:59:22.787Z,29.31
2023-04-24T12:01:52.659Z,29.74
2023-04-24T12:04:22.230Z,28.97
2023-04-24T12:07:06.172Z,29.01
2023-04-24T12:09:47.519Z,28.07
2023-04-24T12:12:20.001Z,28.16
2023-04-24T12:14:55.182Z,28.59
2023-04-24T12:17:29.355Z,27.77
2023-04-24T12:20:03.573Z,27.30
2023-04-24T12:22:47.997Z,28.77
2023-04-24T12:25:18.767Z,29.04
2023-04-24T12:27:49.198Z,28.59
2023-04-24T12:30:19.586Z,28.43
2023-04-24T12:32:50.461Z,28.89
2023-04-24T12:35:23.690Z,27.96
2023-04-24T12:37:54.366Z,27.78
2023-04-24T12:40:27.357Z,27.78
2023-04-24T12:42:58.038Z,27.94
2023-04-24T12:45:29.033Z,27.77
2023-04-24T12:47:58.291Z,28.02
2023-04-24T12:50:27.827Z,27.96
2023-04-24T12:52:58.564Z,27.23
2023-04-24T12:55:28.075Z,27.01
2023-04-24T12:57:57.278Z,27.34
2023-04-24T13:00:26.709Z,27.79
2023-04-24T13:02:56.199Z,27.74
2023-04-24T13:05:26.085Z,27.49
2023-04-24T13:07:55.184Z,27.00
2023-04-24T13:10:26.114Z,28.29
2023-04-24T13:12:55.420Z,28.79
2023-04-24T13:15:25.778Z,29.01
2023-04-24T13:17:54.918Z,29.02
2023-04-24T13:20:24.502Z,28.86
2023-04-24T13:22:53.670Z,30.29
2023-04-24T13:25:26.014Z,29.77
2023-04-24T13:27:55.314Z,30.39
2023-04-24T13:30:24.725Z,30.55
2023-04-24T13:32:53.990Z,30.38
2023-04-24T13:35:24.222Z,31.05
2023-04-24T13:37:53.340Z,31.07
2023-04-24T13:40:24.370Z,29.92
2023-04-24T13:42:53.504Z,31.35
2023-04-24T13:45:25.106Z,31.65
2023-04-24T13:47:55.730Z,30.33
2023-04-24T13:50:25.374Z,30.31
2023-04-24T13:52:55.320Z,28.00
2023-04-24T13:55:26.966Z,28.40
2023-04-24T13:57:56.859Z,28.30
2023-04-24T14:00:26.483Z,30.20
2023-04-24T14:02:55.969Z,31.27
2023-04-24T14:05:26.052Z,31.23
2023-04-24T14:07:57.581Z,31.90
2023-04-24T14:10:28.366Z,32.28
2023-04-24T14:12:57.864Z,32.38
2023-04-24T14:15:27.378Z,31.78
2023-04-24T14:17:56.807Z,30.96
2023-04-24T14:20:26.435Z,31.02
2023-04-24T14:22:55.578Z,31.36
2023-04-24T14:25:25.083Z,31.81
2023-04-24T14:27:55.697Z,32.52
2023-04-24T14:30:25.245Z,31.91
2023-04-24T14:32:54.843Z,32.29
2023-04-24T14:35:25.157Z,31.18
2023-04-24T14:37:54.438Z,30.47
2023-04-24T14:40:48.397Z,30.70
2023-04-24T14:43:16.103Z,30.80
2023-04-24T14:45:45.913Z,29.22
2023-04-24T14:48:17.627Z,29.91
2023-04-24T14:50:47.113Z,31.43
2023-04-24T14:53:17.403Z,31.41
2023-04-24T14:55:47.268Z,31.27
2023-04-24T14:58:17.760Z,28.60
2023-04-24T15:00:47.660Z,28.36
2023-04-24T15:03:17.022Z,27.84
2023-04-24T15:05:46.803Z,26.84
2023-04-24T15:08:16.149Z,27.35
2023-04-24T15:10:46.317Z,26.67
2023-04-24T15:13:16.994Z,26.77
2023-04-24T15:19:58.472Z,26.55
2023-04-24T15:22:27.833Z,26.43
2023-04-24T15:26:03.308Z,26.34
2023-04-24T15:28:32.677Z,26.39
2023-04-24T15:31:01.722Z,25.99
2023-04-24T15:35:07.217Z,25.63
2023-04-24T15:37:38.571Z,26.43
2023-04-24T15:40:09.456Z,27.15
2023-04-24T15:44:39.550Z,26.47
2023-04-24T15:47:08.982Z,27.31
2023-04-24T15:49:38.068Z,26.63
2023-04-24T15:52:07.749Z,26.63
2023-04-24T15:54:39.270Z,26.00
2023-04-24T15:57:08.856Z,26.83
2023-04-24T16:00:20.411Z,26.83
2023-04-24T16:02:51.552Z,26.68
2023-04-24T16:05:22.884Z,26.27
2023-04-24T16:07:52.281Z,27.41
2023-04-24T16:10:21.735Z,27.64
2023-04-24T16:12:53.414Z,27.72
2023-04-24T16:15:24.239Z,28.29
2023-04-24T16:17:53.738Z,28.32
2023-04-24T16:20:22.849Z,29.00
2023-04-24T16:22:52.395Z,28.87
2023-04-24T16:25:21.826Z,28.43
2023-04-24T16:27:52.841Z,28.64
2023-04-24T16:30:24.046Z,29.02
2023-04-24T16:32:53.706Z,29.12
2023-04-24T16:35:22.878Z,28.37
2023-04-24T16:37:52.182Z,28.33
2023-04-24T16:40:21.605Z,28.37
2023-04-24T16:42:52.841Z,28.70
2023-04-24T16:45:23.427Z,28.35
2023-04-24T16:47:52.932Z,27.59
2023-04-24T16:50:22.186Z,27.67
2023-04-24T16:52:51.777Z,27.45
2023-04-24T16:55:20.953Z,26.80
2023-04-24T16:57:50.587Z,26.50
2023-04-24T17:00:20.187Z,26.00
2023-04-24T17:02:51.246Z,25.80
2023-04-24T17:05:23.461Z,26.41
2023-04-24T17:07:53.328Z,25.65
2023-04-24T17:10:22.586Z,25.98
2023-04-24T17:12:52.215Z,26.38
2023-04-24T17:15:21.334Z,25.70
2023-04-24T17:17:53.197Z,25.70
2023-04-24T17:20:23.950Z,26.05
2023-04-24T17:22:53.722Z,25.88
2023-04-24T17:25:23.089Z,26.49
2023-04-24T17:27:52.618Z,25.87
2023-04-24T17:30:21.834Z,25.65
2023-04-24T17:32:52.953Z,25.34
2023-04-24T17:35:22.880Z,25.80
2023-04-24T17:37:52.632Z,25.57
2023-04-24T17:40:21.837Z,25.75
2023-04-24T17:42:51.339Z,25.22
2023-04-24T17:45:20.556Z,25.41
2023-04-24T17:47:51.897Z,25.14
2023-04-24T17:50:21.233Z,25.90
2023-04-24T17:52:51.002Z,25.70
2023-04-24T17:55:20.157Z,25.91
2023-04-24T17:57:49.713Z,25.89
2023-04-24T18:00:19.330Z,26.06
2023-04-24T18:02:49.834Z,25.89
2023-04-24T18:05:20.937Z,25.85
2023-04-24T18:07:50.366Z,26.37
2023-04-24T18:10:19.974Z,26.44
2023-04-24T18:12:49.788Z,26.56
2023-04-24T18:15:19.383Z,26.56
2023-04-24T18:17:49.133Z,26.43
2023-04-24T18:20:20.841Z,26.57
2023-04-24T18:22:50.747Z,26.66
2023-04-24T18:25:26.466Z,26.38
2023-04-24T18:27:56.944Z,26.25
2023-04-24T18:30:27.154Z,26.30
2023-04-24T18:32:56.801Z,26.37
2023-04-24T18:35:27.552Z,26.25
2023-04-24T18:37:56.913Z,26.41
2023-04-24T18:40:26.751Z,26.59
2023-04-24T18:42:57.348Z,26.61
2023-04-24T18:45:26.732Z,26.56
2023-04-24T18:47:56.167Z,26.68
2023-04-24T18:50:27.711Z,26.63
2023-04-24T18:52:57.202Z,26.58
2023-04-24T18:55:26.491Z,26.05
2023-04-24T18:57:56.101Z,25.52
2023-04-24T19:00:25.244Z,25.62
2023-04-24T19:02:55.712Z,25.51
2023-04-24T19:05:26.373Z,25.52
2023-04-24T19:07:55.650Z,25.32
2023-04-24T19:16:43.319Z,25.29
2023-04-24T19:19:12.733Z,24.85
2023-04-24T19:21:42.299Z,25.12
